sensor_id;sensor_type;location;lat;lon;timestamp;P1;durP1;ratioP1;P2;durP2;ratioP2
47009;SDS011;59230;54.164;-3.124;2022-07-23T00:00:19;52.20;;;24.15;;
47009;SDS011;59230;54.164;-3.124;2022-07-23T00:02:47;61.28;;;25.08;;
47009;SDS011;59230;54.164;-3.124;2022-07-23T00:05:13;55.70;;;24.95;;
47009;SDS011;59230;54.164;-3.124;2022-07-23T00:07:40;53.53;;;24.23;;
47009;SDS011;59230;54.164;-3.124;2022-07-23T00:10:08;62.47;;;25.20;;
47009;SDS011;59230;54.164;-3.124;2022-07-23T00:12:34;61.78;;;25.75;;
47009;SDS011;59230;54.164;-3.124;2022-07-23T00:14:59;56.67;;;25.85;;
47009;SDS011;59230;54.164;-3.124;2022-07-23T00:17:25;66.00;;;25.95;;
47009;SDS011;59230;54.164;-3.124;2022-07-23T00:19:53;61.45;;;25.95;;
47009;SDS011;59230;54.164;-3.124;2022-07-23T00:22:19;58.92;;;25.30;;
47009;SDS011;59230;54.164;-3.124;2022-07-23T00:24:45;52.67;;;24.63;;
47009;SDS011;59230;54.164;-3.124;2022-07-23T00:27:10;69.28;;;27.15;;
47009;SDS011;59230;54.164;-3.124;2022-07-23T00:29:36;66.28;;;26.77;;
47009;SDS011;59230;54.164;-3.124;2022-07-23T00:32:02;56.45;;;25.23;;
47009;SDS011;59230;54.164;-3.124;2022-07-23T00:34:29;62.03;;;27.05;;
47009;SDS011;59230;54.164;-3.124;2022-07-23T00:36:56;65.40;;;26.63;;
47009;SDS011;59230;54.164;-3.124;2022-07-23T00:39:23;57.70;;;27.30;;
47009;SDS011;59230;54.164;-3.124;2022-07-23T00:41:50;56.03;;;26.08;;
47009;SDS011;59230;54.164;-3.124;2022-07-23T00:44:18;61.30;;;27.95;;
47009;SDS011;59230;54.164;-3.124;2022-07-23T00:46:50;71.55;;;28.95;;
47009;SDS011;59230;54.164;-3.124;2022-07-23T00:49:21;64.75;;;27.70;;
47009;SDS011;59230;54.164;-3.124;2022-07-23T00:51:48;64.95;;;28.02;;
47009;SDS011;59230;54.164;-3.124;2022-07-23T00:54:16;57.88;;;25.98;;
47009;SDS011;59230;54.164;-3.124;2022-07-23T00:56:46;63.25;;;27.70;;
47009;SDS011;59230;54.164;-3.124;2022-07-23T00:59:12;67.05;;;26.75;;
47009;SDS011;59230;54.164;-3.124;2022-07-23T01:01:40;67.60;;;25.35;;
47009;SDS011;59230;54.164;-3.124;2022-07-23T01:04:07;60.50;;;26.48;;
47009;SDS011;59230;54.164;-3.124;2022-07-23T01:06:34;54.78;;;24.65;;
47009;SDS011;59230;54.164;-3.124;2022-07-23T01:09:04;63.97;;;25.77;;
47009;SDS011;59230;54.164;-3.124;2022-07-23T01:11:34;52.97;;;25.88;;
47009;SDS011;59230;54.164;-3.124;2022-07-23T01:16:36;65.03;;;27.95;;
47009;SDS011;59230;54.164;-3.124;2022-07-23T01:19:03;57.75;;;25.30;;
47009;SDS011;59230;54.164;-3.124;2022-07-23T01:21:39;50.63;;;23.02;;
47009;SDS011;59230;54.164;-3.124;2022-07-23T01:24:13;51.97;;;22.20;;
47009;SDS011;59230;54.164;-3.124;2022-07-23T01:26:40;48.97;;;21.55;;
47009;SDS011;59230;54.164;-3.124;2022-07-23T01:29:10;50.42;;;23.15;;
47009;SDS011;59230;54.164;-3.124;2022-07-23T01:31:41;46.80;;;21.65;;
47009;SDS011;59230;54.164;-3.124;2022-07-23T01:34:11;56.80;;;22.42;;
47009;SDS011;59230;54.164;-3.124;2022-07-23T01:36:38;40.67;;;19.38;;
47009;SDS011;59230;54.164;-3.124;2022-07-23T01:39:05;43.88;;;21.08;;
47009;SDS011;59230;54.164;-3.124;2022-07-23T01:41:33;52.20;;;21.92;;
47009;SDS011;59230;54.164;-3.124;2022-07-23T01:44:01;52.10;;;22.13;;
47009;SDS011;59230;54.164;-3.124;2022-07-23T01:46:28;49.53;;;23.67;;
47009;SDS011;59230;54.164;-3.124;2022-07-23T01:48:55;63.58;;;28.50;;
47009;SDS011;59230;54.164;-3.124;2022-07-23T01:51:22;63.50;;;32.63;;
47009;SDS011;59230;54.164;-3.124;2022-07-23T01:53:47;139.95;;;67.82;;
47009;SDS011;59230;54.164;-3.124;2022-07-23T01:56:13;127.18;;;62.55;;
47009;SDS011;59230;54.164;-3.124;2022-07-23T01:58:42;100.63;;;50.30;;
47009;SDS011;59230;54.164;-3.124;2022-07-23T02:01:09;116.93;;;56.80;;
47009;SDS011;59230;54.164;-3.124;2022-07-23T02:03:36;98.28;;;50.33;;
47009;SDS011;59230;54.164;-3.124;2022-07-23T02:06:03;91.53;;;44.90;;
47009;SDS011;59230;54.164;-3.124;2022-07-23T02:08:30;92.10;;;44.35;;
47009;SDS011;59230;54.164;-3.124;2022-07-23T02:10:58;79.72;;;41.00;;
47009;SDS011;59230;54.164;-3.124;2022-07-23T02:13:24;59.70;;;27.65;;
47009;SDS011;59230;54.164;-3.124;2022-07-23T02:21:07;594.25;;;24.50;;
47009;SDS011;59230;54.164;-3.124;2022-07-23T02:23:34;90.03;;;16.10;;
47009;SDS011;59230;54.164;-3.124;2022-07-23T02:26:00;27.00;;;14.07;;
47009;SDS011;59230;54.164;-3.124;2022-07-23T02:28:26;48.13;;;14.70;;
47009;SDS011;59230;54.164;-3.124;2022-07-23T02:30:51;33.97;;;14.82;;
47009;SDS011;59230;54.164;-3.124;2022-07-23T02:33:18;29.60;;;13.70;;
47009;SDS011;59230;54.164;-3.124;2022-07-23T02:35:43;27.33;;;14.93;;
47009;SDS011;59230;54.164;-3.124;2022-07-23T02:38:11;28.73;;;15.65;;
47009;SDS011;59230;54.164;-3.124;2022-07-23T02:40:36;37.15;;;14.80;;
47009;SDS011;59230;54.164;-3.124;2022-07-23T02:43:02;35.05;;;12.60;;
47009;SDS011;59230;54.164;-3.124;2022-07-23T02:45:30;41.55;;;14.68;;
47009;SDS011;59230;54.164;-3.124;2022-07-23T02:47:59;32.83;;;13.60;;
47009;SDS011;59230;54.164;-3.124;2022-07-23T02:50:27;32.25;;;13.02;;
47009;SDS011;59230;54.164;-3.124;2022-07-23T02:52:54;61.50;;;11.77;;
47009;SDS011;59230;54.164;-3.124;2022-07-23T02:55:22;43.53;;;9.43;;
47009;SDS011;59230;54.164;-3.124;2022-07-23T02:57:48;121.80;;;11.82;;
47009;SDS011;59230;54.164;-3.124;2022-07-23T03:00:14;29.92;;;10.70;;
47009;SDS011;59230;54.164;-3.124;2022-07-23T03:02:42;55.38;;;10.60;;
47009;SDS011;59230;54.164;-3.124;2022-07-23T03:05:07;180.45;;;13.35;;
47009;SDS011;59230;54.164;-3.124;2022-07-23T03:07:33;72.50;;;10.10;;
47009;SDS011;59230;54.164;-3.124;2022-07-23T03:10:00;56.13;;;10.60;;
47009;SDS011;59230;54.164;-3.124;2022-07-23T03:12:25;67.10;;;11.10;;
47009;SDS011;59230;54.164;-3.124;2022-07-23T03:14:51;32.50;;;11.50;;
47009;SDS011;59230;54.164;-3.124;2022-07-23T03:17:16;291.73;;;15.93;;
47009;SDS011;59230;54.164;-3.124;2022-07-23T03:22:37;23.65;;;11.48;;
47009;SDS011;59230;54.164;-3.124;2022-07-23T03:25:10;85.45;;;13.73;;
47009;SDS011;59230;54.164;-3.124;2022-07-23T03:27:36;23.35;;;11.05;;
47009;SDS011;59230;54.164;-3.124;2022-07-23T03:30:02;33.50;;;12.60;;
47009;SDS011;59230;54.164;-3.124;2022-07-23T03:32:28;23.73;;;10.60;;
47009;SDS011;59230;54.164;-3.124;2022-07-23T03:34:55;49.55;;;13.20;;
47009;SDS011;59230;54.164;-3.124;2022-07-23T03:37:21;92.20;;;15.30;;
47009;SDS011;59230;54.164;-3.124;2022-07-23T03:39:50;32.03;;;17.67;;
47009;SDS011;59230;54.164;-3.124;2022-07-23T03:42:16;107.05;;;20.25;;
47009;SDS011;59230;54.164;-3.124;2022-07-23T03:44:44;48.72;;;20.17;;
47009;SDS011;59230;54.164;-3.124;2022-07-23T03:47:15;57.20;;;18.17;;
47009;SDS011;59230;54.164;-3.124;2022-07-23T03:49:42;67.13;;;18.23;;
47009;SDS011;59230;54.164;-3.124;2022-07-23T03:52:09;48.38;;;15.75;;
47009;SDS011;59230;54.164;-3.124;2022-07-23T03:54:36;62.50;;;17.27;;
47009;SDS011;59230;54.164;-3.124;2022-07-23T03:57:02;63.17;;;17.75;;
47009;SDS011;59230;54.164;-3.124;2022-07-23T03:59:29;32.50;;;16.25;;
47009;SDS011;59230;54.164;-3.124;2022-07-23T04:01:59;27.25;;;14.82;;
47009;SDS011;59230;54.164;-3.124;2022-07-23T04:04:25;36.00;;;15.57;;
47009;SDS011;59230;54.164;-3.124;2022-07-23T04:06:52;25.88;;;13.18;;
47009;SDS011;59230;54.164;-3.124;2022-07-23T04:09:21;25.02;;;13.45;;
47009;SDS011;59230;54.164;-3.124;2022-07-23T04:11:47;26.23;;;12.75;;
47009;SDS011;59230;54.164;-3.124;2022-07-23T04:14:12;24.52;;;12.90;;
47009;SDS011;59230;54.164;-3.124;2022-07-23T04:16:38;22.05;;;12.50;;
47009;SDS011;59230;54.164;-3.124;2022-07-23T04:19:05;29.30;;;11.90;;
47009;SDS011;59230;54.164;-3.124;2022-07-23T04:24:17;22.10;;;11.25;;
47009;SDS011;59230;54.164;-3.124;2022-07-23T04:26:46;26.02;;;12.35;;
47009;SDS011;59230;54.164;-3.124;2022-07-23T04:29:13;26.13;;;10.70;;
47009;SDS011;59230;54.164;-3.124;2022-07-23T04:31:38;22.08;;;11.10;;
47009;SDS011;59230;54.164;-3.124;2022-07-23T04:34:07;29.67;;;11.80;;
47009;SDS011;59230;54.164;-3.124;2022-07-23T04:36:36;23.58;;;10.38;;
47009;SDS011;59230;54.164;-3.124;2022-07-23T04:39:03;18.80;;;9.90;;
47009;SDS011;59230;54.164;-3.124;2022-07-23T04:41:32;17.58;;;10.60;;
47009;SDS011;59230;54.164;-3.124;2022-07-23T04:43:59;22.67;;;10.98;;
47009;SDS011;59230;54.164;-3.124;2022-07-23T04:46:26;34.67;;;11.82;;
47009;SDS011;59230;54.164;-3.124;2022-07-23T04:48:56;28.58;;;11.48;;
47009;SDS011;59230;54.164;-3.124;2022-07-23T04:51:21;30.25;;;11.85;;
47009;SDS011;59230;54.164;-3.124;2022-07-23T04:53:48;26.15;;;11.55;;
47009;SDS011;59230;54.164;-3.124;2022-07-23T04:56:14;28.83;;;13.13;;
47009;SDS011;59230;54.164;-3.124;2022-07-23T04:58:43;28.77;;;12.77;;
47009;SDS011;59230;54.164;-3.124;2022-07-23T05:01:10;32.67;;;13.50;;
47009;SDS011;59230;54.164;-3.124;2022-07-23T05:03:38;26.10;;;13.95;;
47009;SDS011;59230;54.164;-3.124;2022-07-23T05:06:07;39.88;;;14.43;;
47009;SDS011;59230;54.164;-3.124;2022-07-23T05:08:32;40.25;;;14.10;;
47009;SDS011;59230;54.164;-3.124;2022-07-23T05:10:58;33.65;;;14.82;;
47009;SDS011;59230;54.164;-3.124;2022-07-23T05:13:23;44.85;;;15.88;;
47009;SDS011;59230;54.164;-3.124;2022-07-23T05:15:50;43.08;;;15.48;;
47009;SDS011;59230;54.164;-3.124;2022-07-23T05:18:16;41.67;;;16.23;;
47009;SDS011;59230;54.164;-3.124;2022-07-23T05:20:42;46.58;;;19.75;;
47009;SDS011;59230;54.164;-3.124;2022-07-23T06:58:55;22.98;;;8.70;;
47009;SDS011;59230;54.164;-3.124;2022-07-23T07:01:21;19.23;;;8.93;;
47009;SDS011;59230;54.164;-3.124;2022-07-23T07:03:56;14.80;;;8.48;;
47009;SDS011;59230;54.164;-3.124;2022-07-23T07:06:22;22.27;;;9.02;;
47009;SDS011;59230;54.164;-3.124;2022-07-23T07:08:56;18.80;;;8.95;;
47009;SDS011;59230;54.164;-3.124;2022-07-23T07:11:27;24.67;;;10.57;;
47009;SDS011;59230;54.164;-3.124;2022-07-23T07:14:05;25.83;;;11.15;;
47009;SDS011;59230;54.164;-3.124;2022-07-23T07:16:48;25.15;;;12.15;;
47009;SDS011;59230;54.164;-3.124;2022-07-23T07:19:31;17.88;;;9.20;;
47009;SDS011;59230;54.164;-3.124;2022-07-23T07:21:59;20.13;;;10.32;;
47009;SDS011;59230;54.164;-3.124;2022-07-23T07:24:25;21.60;;;10.18;;
47009;SDS011;59230;54.164;-3.124;2022-07-23T07:26:50;24.95;;;9.50;;
47009;SDS011;59230;54.164;-3.124;2022-07-23T07:29:16;20.15;;;9.15;;
47009;SDS011;59230;54.164;-3.124;2022-07-23T07:31:41;19.27;;;8.82;;
47009;SDS011;59230;54.164;-3.124;2022-07-23T07:34:07;20.33;;;8.43;;
47009;SDS011;59230;54.164;-3.124;2022-07-23T07:36:32;21.73;;;8.27;;
47009;SDS011;59230;54.164;-3.124;2022-07-23T07:38:58;16.63;;;7.80;;
47009;SDS011;59230;54.164;-3.124;2022-07-23T07:41:23;22.40;;;8.35;;
47009;SDS011;59230;54.164;-3.124;2022-07-23T07:43:51;15.80;;;8.13;;
47009;SDS011;59230;54.164;-3.124;2022-07-23T07:46:17;16.58;;;7.82;;
47009;SDS011;59230;54.164;-3.124;2022-07-23T07:48:43;18.58;;;9.20;;
47009;SDS011;59230;54.164;-3.124;2022-07-23T07:51:08;16.95;;;8.80;;
47009;SDS011;59230;54.164;-3.124;2022-07-23T07:53:34;21.65;;;8.80;;
47009;SDS011;59230;54.164;-3.124;2022-07-23T07:55:59;17.02;;;8.77;;
47009;SDS011;59230;54.164;-3.124;2022-07-23T07:58:25;18.55;;;8.57;;
47009;SDS011;59230;54.164;-3.124;2022-07-23T08:00:51;15.75;;;8.52;;
47009;SDS011;59230;54.164;-3.124;2022-07-23T08:03:16;15.43;;;8.00;;
47009;SDS011;59230;54.164;-3.124;2022-07-23T08:05:42;13.05;;;7.97;;
47009;SDS011;59230;54.164;-3.124;2022-07-23T08:08:07;13.77;;;7.70;;
47009;SDS011;59230;54.164;-3.124;2022-07-23T08:10:34;12.63;;;6.43;;
47009;SDS011;59230;54.164;-3.124;2022-07-23T08:13:00;15.48;;;6.97;;
47009;SDS011;59230;54.164;-3.124;2022-07-23T08:15:26;14.63;;;7.07;;
47009;SDS011;59230;54.164;-3.124;2022-07-23T08:17:53;16.08;;;7.50;;
47009;SDS011;59230;54.164;-3.124;2022-07-23T08:20:20;28.13;;;11.88;;
47009;SDS011;59230;54.164;-3.124;2022-07-23T08:25:21;13.25;;;6.95;;
47009;SDS011;59230;54.164;-3.124;2022-07-23T08:27:48;12.70;;;5.00;;
47009;SDS011;59230;54.164;-3.124;2022-07-23T08:30:14;17.13;;;6.63;;
47009;SDS011;59230;54.164;-3.124;2022-07-23T08:32:52;39.25;;;13.45;;
47009;SDS011;59230;54.164;-3.124;2022-07-23T08:35:25;42.35;;;14.73;;
47009;SDS011;59230;54.164;-3.124;2022-07-23T08:40:50;16.67;;;7.47;;
47009;SDS011;59230;54.164;-3.124;2022-07-23T08:43:24;18.80;;;5.72;;
47009;SDS011;59230;54.164;-3.124;2022-07-23T08:45:52;14.55;;;5.85;;
47009;SDS011;59230;54.164;-3.124;2022-07-23T08:48:23;9.77;;;4.63;;
47009;SDS011;59230;54.164;-3.124;2022-07-23T08:50:53;9.45;;;4.65;;
47009;SDS011;59230;54.164;-3.124;2022-07-23T08:53:20;10.90;;;5.25;;
47009;SDS011;59230;54.164;-3.124;2022-07-23T08:55:47;13.43;;;6.03;;
47009;SDS011;59230;54.164;-3.124;2022-07-23T08:58:14;11.73;;;5.95;;
47009;SDS011;59230;54.164;-3.124;2022-07-23T09:00:41;17.38;;;6.53;;
47009;SDS011;59230;54.164;-3.124;2022-07-23T09:03:07;19.30;;;7.55;;
47009;SDS011;59230;54.164;-3.124;2022-07-23T09:05:45;16.50;;;6.57;;
47009;SDS011;59230;54.164;-3.124;2022-07-23T09:08:13;17.08;;;7.40;;
47009;SDS011;59230;54.164;-3.124;2022-07-23T09:10:46;17.75;;;7.53;;
47009;SDS011;59230;54.164;-3.124;2022-07-23T09:15:56;12.60;;;7.25;;
47009;SDS011;59230;54.164;-3.124;2022-07-23T09:18:30;15.98;;;7.78;;
47009;SDS011;59230;54.164;-3.124;2022-07-23T09:26:21;18.08;;;7.65;;
47009;SDS011;59230;54.164;-3.124;2022-07-23T09:31:43;20.23;;;7.95;;
47009;SDS011;59230;54.164;-3.124;2022-07-23T09:36:49;19.33;;;10.80;;
47009;SDS011;59230;54.164;-3.124;2022-07-23T09:39:16;24.00;;;10.38;;
47009;SDS011;59230;54.164;-3.124;2022-07-23T09:41:49;24.42;;;13.77;;
47009;SDS011;59230;54.164;-3.124;2022-07-23T09:44:16;30.67;;;11.70;;
47009;SDS011;59230;54.164;-3.124;2022-07-23T09:46:44;30.90;;;17.63;;
47009;SDS011;59230;54.164;-3.124;2022-07-23T09:49:11;24.95;;;13.95;;
47009;SDS011;59230;54.164;-3.124;2022-07-23T09:51:51;24.45;;;13.68;;
47009;SDS011;59230;54.164;-3.124;2022-07-23T09:54:23;20.88;;;10.85;;
47009;SDS011;59230;54.164;-3.124;2022-07-23T09:57:01;29.55;;;12.27;;
47009;SDS011;59230;54.164;-3.124;2022-07-23T09:59:37;28.52;;;12.75;;
47009;SDS011;59230;54.164;-3.124;2022-07-23T10:02:04;30.75;;;16.02;;
47009;SDS011;59230;54.164;-3.124;2022-07-23T10:04:32;28.58;;;12.82;;
47009;SDS011;59230;54.164;-3.124;2022-07-23T10:06:59;26.88;;;14.98;;
47009;SDS011;59230;54.164;-3.124;2022-07-23T10:09:30;38.95;;;20.25;;
47009;SDS011;59230;54.164;-3.124;2022-07-23T10:12:01;35.53;;;16.70;;
47009;SDS011;59230;54.164;-3.124;2022-07-23T10:14:38;30.73;;;16.13;;
47009;SDS011;59230;54.164;-3.124;2022-07-23T10:17:04;27.50;;;16.52;;
47009;SDS011;59230;54.164;-3.124;2022-07-23T10:19:41;40.75;;;20.23;;
47009;SDS011;59230;54.164;-3.124;2022-07-23T10:39:04;46.15;;;24.25;;
47009;SDS011;59230;54.164;-3.124;2022-07-23T10:41:42;41.08;;;19.58;;
47009;SDS011;59230;54.164;-3.124;2022-07-23T10:44:11;42.60;;;21.98;;
47009;SDS011;59230;54.164;-3.124;2022-07-23T10:47:02;49.70;;;23.45;;
47009;SDS011;59230;54.164;-3.124;2022-07-23T10:49:50;33.95;;;20.20;;
47009;SDS011;59230;54.164;-3.124;2022-07-23T10:52:28;47.80;;;22.85;;
47009;SDS011;59230;54.164;-3.124;2022-07-23T10:55:39;39.50;;;21.48;;
47009;SDS011;59230;54.164;-3.124;2022-07-23T10:58:08;43.22;;;23.08;;
47009;SDS011;59230;54.164;-3.124;2022-07-23T11:00:35;52.92;;;25.13;;
47009;SDS011;59230;54.164;-3.124;2022-07-23T11:03:02;51.58;;;25.48;;
47009;SDS011;59230;54.164;-3.124;2022-07-23T11:05:45;39.27;;;17.60;;
47009;SDS011;59230;54.164;-3.124;2022-07-23T11:08:16;32.40;;;15.82;;
47009;SDS011;59230;54.164;-3.124;2022-07-23T11:16:41;27.08;;;12.95;;
47009;SDS011;59230;54.164;-3.124;2022-07-23T11:24:05;36.13;;;15.85;;
47009;SDS011;59230;54.164;-3.124;2022-07-23T11:32:06;54.35;;;22.60;;
47009;SDS011;59230;54.164;-3.124;2022-07-23T11:37:40;49.00;;;20.63;;
47009;SDS011;59230;54.164;-3.124;2022-07-23T11:40:14;44.85;;;21.45;;
47009;SDS011;59230;54.164;-3.124;2022-07-23T11:42:56;56.08;;;22.55;;
47009;SDS011;59230;54.164;-3.124;2022-07-23T11:46:09;55.50;;;24.38;;
47009;SDS011;59230;54.164;-3.124;2022-07-23T11:48:23;45.83;;;22.33;;
47009;SDS011;59230;54.164;-3.124;2022-07-23T11:50:53;57.50;;;24.58;;
47009;SDS011;59230;54.164;-3.124;2022-07-23T11:53:30;46.72;;;23.23;;
47009;SDS011;59230;54.164;-3.124;2022-07-23T11:56:05;56.88;;;24.73;;
47009;SDS011;59230;54.164;-3.124;2022-07-23T11:58:33;56.17;;;24.90;;
47009;SDS011;59230;54.164;-3.124;2022-07-23T12:01:03;58.25;;;25.60;;
47009;SDS011;59230;54.164;-3.124;2022-07-23T12:03:29;44.63;;;22.75;;
47009;SDS011;59230;54.164;-3.124;2022-07-23T12:05:56;44.42;;;21.92;;
47009;SDS011;59230;54.164;-3.124;2022-07-23T12:08:25;54.30;;;23.98;;
47009;SDS011;59230;54.164;-3.124;2022-07-23T12:10:54;48.28;;;22.38;;
47009;SDS011;59230;54.164;-3.124;2022-07-23T12:13:20;45.75;;;23.92;;
47009;SDS011;59230;54.164;-3.124;2022-07-23T12:15:52;46.38;;;22.20;;
47009;SDS011;59230;54.164;-3.124;2022-07-23T12:18:20;36.17;;;20.25;;
47009;SDS011;59230;54.164;-3.124;2022-07-23T12:20:53;32.72;;;16.63;;
47009;SDS011;59230;54.164;-3.124;2022-07-23T12:23:26;30.00;;;15.18;;
47009;SDS011;59230;54.164;-3.124;2022-07-23T12:26:00;23.30;;;14.00;;
47009;SDS011;59230;54.164;-3.124;2022-07-23T12:28:29;36.10;;;17.02;;
47009;SDS011;59230;54.164;-3.124;2022-07-23T12:30:56;26.38;;;14.75;;
47009;SDS011;59230;54.164;-3.124;2022-07-23T12:35:59;24.63;;;15.98;;
47009;SDS011;59230;54.164;-3.124;2022-07-23T12:41:14;37.22;;;22.73;;
47009;SDS011;59230;54.164;-3.124;2022-07-23T12:43:40;25.77;;;15.52;;
47009;SDS011;59230;54.164;-3.124;2022-07-23T12:51:18;24.50;;;16.23;;
47009;SDS011;59230;54.164;-3.124;2022-07-23T12:53:46;23.17;;;15.07;;
47009;SDS011;59230;54.164;-3.124;2022-07-23T12:56:15;22.98;;;14.45;;
47009;SDS011;59230;54.164;-3.124;2022-07-23T12:58:47;22.13;;;13.90;;
47009;SDS011;59230;54.164;-3.124;2022-07-23T13:01:24;22.63;;;14.23;;
47009;SDS011;59230;54.164;-3.124;2022-07-23T13:06:53;27.77;;;17.42;;
47009;SDS011;59230;54.164;-3.124;2022-07-23T13:09:25;27.60;;;15.18;;
47009;SDS011;59230;54.164;-3.124;2022-07-23T13:11:56;20.05;;;13.50;;
47009;SDS011;59230;54.164;-3.124;2022-07-23T13:14:25;39.55;;;23.92;;
47009;SDS011;59230;54.164;-3.124;2022-07-23T13:16:52;38.20;;;25.10;;
47009;SDS011;59230;54.164;-3.124;2022-07-23T13:19:19;40.67;;;26.02;;
47009;SDS011;59230;54.164;-3.124;2022-07-23T13:21:49;30.55;;;20.15;;
47009;SDS011;59230;54.164;-3.124;2022-07-23T13:24:15;21.38;;;16.20;;
47009;SDS011;59230;54.164;-3.124;2022-07-23T13:26:42;22.40;;;14.20;;
47009;SDS011;59230;54.164;-3.124;2022-07-23T13:29:09;23.02;;;16.27;;
47009;SDS011;59230;54.164;-3.124;2022-07-23T13:31:36;19.15;;;14.95;;
47009;SDS011;59230;54.164;-3.124;2022-07-23T13:34:03;47.35;;;31.15;;
47009;SDS011;59230;54.164;-3.124;2022-07-23T13:36:32;77.28;;;50.15;;
47009;SDS011;59230;54.164;-3.124;2022-07-23T13:38:58;62.28;;;42.30;;
47009;SDS011;59230;54.164;-3.124;2022-07-23T13:41:24;44.28;;;26.63;;
47009;SDS011;59230;54.164;-3.124;2022-07-23T13:43:52;20.55;;;13.82;;
47009;SDS011;59230;54.164;-3.124;2022-07-23T13:46:21;18.55;;;12.88;;
47009;SDS011;59230;54.164;-3.124;2022-07-23T13:48:49;20.05;;;13.98;;
47009;SDS011;59230;54.164;-3.124;2022-07-23T13:51:15;21.20;;;13.63;;
47009;SDS011;59230;54.164;-3.124;2022-07-23T13:53:44;16.13;;;10.80;;
47009;SDS011;59230;54.164;-3.124;2022-07-23T13:56:14;13.55;;;10.57;;
47009;SDS011;59230;54.164;-3.124;2022-07-23T13:58:39;19.42;;;11.57;;
47009;SDS011;59230;54.164;-3.124;2022-07-23T14:01:08;19.02;;;12.27;;
47009;SDS011;59230;54.164;-3.124;2022-07-23T14:03:34;23.20;;;13.18;;
47009;SDS011;59230;54.164;-3.124;2022-07-23T14:06:02;22.70;;;13.15;;
47009;SDS011;59230;54.164;-3.124;2022-07-23T14:08:31;19.92;;;10.93;;
47009;SDS011;59230;54.164;-3.124;2022-07-23T14:10:58;18.05;;;12.50;;
47009;SDS011;59230;54.164;-3.124;2022-07-23T14:13:23;22.42;;;11.57;;
47009;SDS011;59230;54.164;-3.124;2022-07-23T14:15:52;19.08;;;11.55;;
47009;SDS011;59230;54.164;-3.124;2022-07-23T14:18:21;21.58;;;11.88;;
47009;SDS011;59230;54.164;-3.124;2022-07-23T14:20:47;21.63;;;12.52;;
47009;SDS011;59230;54.164;-3.124;2022-07-23T14:23:16;16.92;;;11.80;;
47009;SDS011;59230;54.164;-3.124;2022-07-23T14:25:41;18.67;;;12.10;;
47009;SDS011;59230;54.164;-3.124;2022-07-23T14:28:08;27.83;;;12.63;;
47009;SDS011;59230;54.164;-3.124;2022-07-23T14:30:37;21.85;;;13.05;;
47009;SDS011;59230;54.164;-3.124;2022-07-23T14:33:03;24.05;;;13.68;;
47009;SDS011;59230;54.164;-3.124;2022-07-23T14:35:28;19.88;;;12.45;;
47009;SDS011;59230;54.164;-3.124;2022-07-23T14:37:54;20.45;;;12.93;;
47009;SDS011;59230;54.164;-3.124;2022-07-23T14:40:20;23.80;;;12.60;;
47009;SDS011;59230;54.164;-3.124;2022-07-23T14:42:46;30.70;;;13.65;;
47009;SDS011;59230;54.164;-3.124;2022-07-23T14:45:13;25.92;;;13.25;;
47009;SDS011;59230;54.164;-3.124;2022-07-23T14:47:39;29.67;;;15.07;;
47009;SDS011;59230;54.164;-3.124;2022-07-23T14:50:07;30.33;;;15.73;;
47009;SDS011;59230;54.164;-3.124;2022-07-23T14:52:34;28.85;;;14.02;;
47009;SDS011;59230;54.164;-3.124;2022-07-23T14:55:03;27.05;;;15.27;;
47009;SDS011;59230;54.164;-3.124;2022-07-23T14:57:31;26.20;;;16.13;;
47009;SDS011;59230;54.164;-3.124;2022-07-23T15:00:02;28.77;;;16.58;;
47009;SDS011;59230;54.164;-3.124;2022-07-23T15:02:32;38.15;;;20.63;;
47009;SDS011;59230;54.164;-3.124;2022-07-23T15:04:58;27.17;;;17.75;;
47009;SDS011;59230;54.164;-3.124;2022-07-23T15:07:27;29.08;;;16.80;;
47009;SDS011;59230;54.164;-3.124;2022-07-23T15:09:57;31.13;;;15.77;;
47009;SDS011;59230;54.164;-3.124;2022-07-23T15:12:25;29.50;;;16.70;;
47009;SDS011;59230;54.164;-3.124;2022-07-23T15:14:56;28.42;;;18.15;;
47009;SDS011;59230;54.164;-3.124;2022-07-23T15:17:24;28.13;;;16.13;;
47009;SDS011;59230;54.164;-3.124;2022-07-23T15:19:54;25.88;;;16.58;;
47009;SDS011;59230;54.164;-3.124;2022-07-23T15:22:20;23.92;;;15.70;;
47009;SDS011;59230;54.164;-3.124;2022-07-23T15:24:45;26.80;;;15.75;;
47009;SDS011;59230;54.164;-3.124;2022-07-23T15:27:11;28.63;;;17.75;;
47009;SDS011;59230;54.164;-3.124;2022-07-23T15:29:36;30.55;;;17.02;;
47009;SDS011;59230;54.164;-3.124;2022-07-23T15:32:02;26.88;;;16.45;;
47009;SDS011;59230;54.164;-3.124;2022-07-23T15:37:32;31.10;;;16.83;;
47009;SDS011;59230;54.164;-3.124;2022-07-23T15:40:08;34.33;;;17.52;;
47009;SDS011;59230;54.164;-3.124;2022-07-23T15:42:34;35.47;;;18.73;;
47009;SDS011;59230;54.164;-3.124;2022-07-23T15:53:24;38.85;;;18.90;;
47009;SDS011;59230;54.164;-3.124;2022-07-23T15:55:50;31.80;;;17.92;;
47009;SDS011;59230;54.164;-3.124;2022-07-23T15:58:15;36.13;;;18.88;;
47009;SDS011;59230;54.164;-3.124;2022-07-23T16:00:41;40.17;;;18.67;;
47009;SDS011;59230;54.164;-3.124;2022-07-23T16:03:06;33.38;;;18.98;;
47009;SDS011;59230;54.164;-3.124;2022-07-23T16:05:32;35.53;;;18.67;;
47009;SDS011;59230;54.164;-3.124;2022-07-23T16:08:01;47.47;;;19.83;;
47009;SDS011;59230;54.164;-3.124;2022-07-23T16:10:27;41.97;;;19.20;;
47009;SDS011;59230;54.164;-3.124;2022-07-23T16:12:53;35.67;;;20.02;;
47009;SDS011;59230;54.164;-3.124;2022-07-23T16:15:18;44.95;;;21.20;;
47009;SDS011;59230;54.164;-3.124;2022-07-23T16:17:44;44.33;;;21.30;;
47009;SDS011;59230;54.164;-3.124;2022-07-23T16:20:10;42.63;;;20.60;;
47009;SDS011;59230;54.164;-3.124;2022-07-23T16:22:36;45.90;;;20.73;;
47009;SDS011;59230;54.164;-3.124;2022-07-23T16:25:05;37.67;;;20.52;;
47009;SDS011;59230;54.164;-3.124;2022-07-23T16:27:32;48.65;;;21.70;;
47009;SDS011;59230;54.164;-3.124;2022-07-23T16:29:58;41.13;;;20.63;;
47009;SDS011;59230;54.164;-3.124;2022-07-23T16:32:23;38.13;;;18.95;;
47009;SDS011;59230;54.164;-3.124;2022-07-23T16:34:49;33.90;;;18.30;;
47009;SDS011;59230;54.164;-3.124;2022-07-23T16:37:14;38.95;;;18.85;;
47009;SDS011;59230;54.164;-3.124;2022-07-23T16:39:41;45.50;;;19.63;;
47009;SDS011;59230;54.164;-3.124;2022-07-23T16:42:06;40.00;;;17.73;;
47009;SDS011;59230;54.164;-3.124;2022-07-23T16:44:33;35.65;;;16.13;;
47009;SDS011;59230;54.164;-3.124;2022-07-23T16:49:32;33.00;;;16.48;;
47009;SDS011;59230;54.164;-3.124;2022-07-23T16:51:59;33.95;;;15.60;;
47009;SDS011;59230;54.164;-3.124;2022-07-23T16:54:26;35.67;;;16.67;;
47009;SDS011;59230;54.164;-3.124;2022-07-23T16:56:51;32.38;;;15.30;;
47009;SDS011;59230;54.164;-3.124;2022-07-23T16:59:18;33.13;;;15.73;;
47009;SDS011;59230;54.164;-3.124;2022-07-23T17:01:44;27.98;;;14.95;;
47009;SDS011;59230;54.164;-3.124;2022-07-23T17:04:27;30.30;;;14.95;;
47009;SDS011;59230;54.164;-3.124;2022-07-23T17:10:45;28.67;;;13.13;;
47009;SDS011;59230;54.164;-3.124;2022-07-23T17:13:14;32.10;;;13.70;;
47009;SDS011;59230;54.164;-3.124;2022-07-23T17:18:44;23.05;;;9.95;;
47009;SDS011;59230;54.164;-3.124;2022-07-23T17:21:10;23.20;;;9.18;;
47009;SDS011;59230;54.164;-3.124;2022-07-23T17:31:10;21.08;;;8.02;;
47009;SDS011;59230;54.164;-3.124;2022-07-23T17:33:57;18.60;;;7.43;;
47009;SDS011;59230;54.164;-3.124;2022-07-23T17:36:49;24.40;;;7.35;;
47009;SDS011;59230;54.164;-3.124;2022-07-23T17:39:37;30.15;;;7.38;;
47009;SDS011;59230;54.164;-3.124;2022-07-23T17:45:03;28.60;;;7.68;;
47009;SDS011;59230;54.164;-3.124;2022-07-23T17:47:40;28.08;;;7.60;;